sensor_id;sensor_type;location;lat;lon;timestamp;temperature;humidity
81311;DHT22;70779;52.506;5.492;2023-07-29T00:02:12;20.90;67.70
81311;DHT22;70779;52.506;5.492;2023-07-29T00:04:38;20.80;67.60
81311;DHT22;70779;52.506;5.492;2023-07-29T00:07:04;20.80;67.70
81311;DHT22;70779;52.506;5.492;2023-07-29T00:09:30;20.70;67.70
81311;DHT22;70779;52.506;5.492;2023-07-29T00:11:56;20.70;67.80
81311;DHT22;70779;52.506;5.492;2023-07-29T00:14:22;20.70;67.70
81311;DHT22;70779;52.506;5.492;2023-07-29T00:16:49;20.70;67.70
81311;DHT22;70779;52.506;5.492;2023-07-29T00:19:15;20.70;67.50
81311;DHT22;70779;52.506;5.492;2023-07-29T00:21:41;20.60;67.50
81311;DHT22;70779;52.506;5.492;2023-07-29T00:24:07;20.60;67.50
81311;DHT22;70779;52.506;5.492;2023-07-29T00:26:33;20.50;67.50
81311;DHT22;70779;52.506;5.492;2023-07-29T00:29:00;20.50;67.60
81311;DHT22;70779;52.506;5.492;2023-07-29T00:31:27;20.50;67.60
81311;DHT22;70779;52.506;5.492;2023-07-29T00:33:53;20.40;67.70
81311;DHT22;70779;52.506;5.492;2023-07-29T00:36:20;20.40;67.80
81311;DHT22;70779;52.506;5.492;2023-07-29T00:38:46;20.40;67.80
81311;DHT22;70779;52.506;5.492;2023-07-29T00:41:13;20.50;67.80
81311;DHT22;70779;52.506;5.492;2023-07-29T00:43:41;20.50;67.70
81311;DHT22;70779;52.506;5.492;2023-07-29T00:46:09;20.50;67.50
81311;DHT22;70779;52.506;5.492;2023-07-29T00:48:36;20.50;67.50
81311;DHT22;70779;52.506;5.492;2023-07-29T00:51:02;20.50;67.40
81311;DHT22;70779;52.506;5.492;2023-07-29T00:53:28;20.50;67.40
81311;DHT22;70779;52.506;5.492;2023-07-29T00:55:54;20.50;67.30
81311;DHT22;70779;52.506;5.492;2023-07-29T00:58:21;20.50;67.40
81311;DHT22;70779;52.506;5.492;2023-07-29T01:00:47;20.50;67.40
81311;DHT22;70779;52.506;5.492;2023-07-29T01:03:13;20.50;67.30
81311;DHT22;70779;52.506;5.492;2023-07-29T01:08:58;20.60;67.00
81311;DHT22;70779;52.506;5.492;2023-07-29T01:11:52;20.60;67.00
81311;DHT22;70779;52.506;5.492;2023-07-29T01:17:36;20.70;66.70
81311;DHT22;70779;52.506;5.492;2023-07-29T01:20:14;20.70;66.70
81311;DHT22;70779;52.506;5.492;2023-07-29T01:22:41;20.80;66.60
81311;DHT22;70779;52.506;5.492;2023-07-29T01:25:08;20.80;66.50
81311;DHT22;70779;52.506;5.492;2023-07-29T01:27:34;20.80;66.40
81311;DHT22;70779;52.506;5.492;2023-07-29T01:30:01;20.80;66.30
81311;DHT22;70779;52.506;5.492;2023-07-29T01:32:58;20.80;66.30
81311;DHT22;70779;52.506;5.492;2023-07-29T01:35:46;20.90;66.10
81311;DHT22;70779;52.506;5.492;2023-07-29T01:38:30;20.90;66.20
81311;DHT22;70779;52.506;5.492;2023-07-29T01:41:01;20.90;66.10
81311;DHT22;70779;52.506;5.492;2023-07-29T01:43:31;20.90;66.00
81311;DHT22;70779;52.506;5.492;2023-07-29T01:45:57;20.90;66.00
81311;DHT22;70779;52.506;5.492;2023-07-29T01:48:24;20.90;65.90
81311;DHT22;70779;52.506;5.492;2023-07-29T01:50:50;20.90;65.90
81311;DHT22;70779;52.506;5.492;2023-07-29T01:53:16;21.00;65.80
81311;DHT22;70779;52.506;5.492;2023-07-29T01:55:43;21.00;65.80
81311;DHT22;70779;52.506;5.492;2023-07-29T01:58:11;21.00;65.70
81311;DHT22;70779;52.506;5.492;2023-07-29T02:00:38;21.00;65.50
81311;DHT22;70779;52.506;5.492;2023-07-29T02:03:05;21.00;65.50
81311;DHT22;70779;52.506;5.492;2023-07-29T02:05:31;21.10;65.30
81311;DHT22;70779;52.506;5.492;2023-07-29T02:07:57;21.10;65.20
81311;DHT22;70779;52.506;5.492;2023-07-29T02:10:23;21.10;65.10
81311;DHT22;70779;52.506;5.492;2023-07-29T02:12:49;21.10;65.10
81311;DHT22;70779;52.506;5.492;2023-07-29T02:15:15;21.10;65.00
81311;DHT22;70779;52.506;5.492;2023-07-29T02:17:42;21.00;65.00
81311;DHT22;70779;52.506;5.492;2023-07-29T02:20:08;21.00;65.00
81311;DHT22;70779;52.506;5.492;2023-07-29T02:22:36;21.00;65.00
81311;DHT22;70779;52.506;5.492;2023-07-29T02:25:03;21.00;65.00
81311;DHT22;70779;52.506;5.492;2023-07-29T02:27:29;20.90;65.00
81311;DHT22;70779;52.506;5.492;2023-07-29T02:29:55;21.00;65.00
81311;DHT22;70779;52.506;5.492;2023-07-29T02:32:21;20.90;65.00
81311;DHT22;70779;52.506;5.492;2023-07-29T02:34:48;20.90;65.00
81311;DHT22;70779;52.506;5.492;2023-07-29T02:37:15;20.90;65.00
81311;DHT22;70779;52.506;5.492;2023-07-29T02:39:41;20.80;64.90
81311;DHT22;70779;52.506;5.492;2023-07-29T02:42:07;20.80;64.90
81311;DHT22;70779;52.506;5.492;2023-07-29T02:44:33;20.80;65.00
81311;DHT22;70779;52.506;5.492;2023-07-29T02:46:59;20.80;64.90
81311;DHT22;70779;52.506;5.492;2023-07-29T02:49:25;20.80;64.90
81311;DHT22;70779;52.506;5.492;2023-07-29T02:51:51;20.70;65.00
81311;DHT22;70779;52.506;5.492;2023-07-29T02:54:17;20.70;65.10
81311;DHT22;70779;52.506;5.492;2023-07-29T02:56:43;20.70;65.10
81311;DHT22;70779;52.506;5.492;2023-07-29T02:59:09;20.70;65.10
81311;DHT22;70779;52.506;5.492;2023-07-29T03:01:36;20.70;65.20
81311;DHT22;70779;52.506;5.492;2023-07-29T03:04:02;20.70;65.20
81311;DHT22;70779;52.506;5.492;2023-07-29T03:06:29;20.70;65.20
81311;DHT22;70779;52.506;5.492;2023-07-29T03:08:55;20.60;65.30
81311;DHT22;70779;52.506;5.492;2023-07-29T03:11:21;20.60;65.40
81311;DHT22;70779;52.506;5.492;2023-07-29T03:13:47;20.50;65.50
81311;DHT22;70779;52.506;5.492;2023-07-29T03:16:15;20.50;65.70
81311;DHT22;70779;52.506;5.492;2023-07-29T03:18:48;20.50;65.80
81311;DHT22;70779;52.506;5.492;2023-07-29T03:21:15;20.50;65.90
81311;DHT22;70779;52.506;5.492;2023-07-29T03:23:41;20.40;66.00
81311;DHT22;70779;52.506;5.492;2023-07-29T03:26:07;20.40;66.10
81311;DHT22;70779;52.506;5.492;2023-07-29T03:28:41;20.30;66.10
81311;DHT22;70779;52.506;5.492;2023-07-29T03:31:08;20.30;66.20
81311;DHT22;70779;52.506;5.492;2023-07-29T03:33:34;20.30;66.20
81311;DHT22;70779;52.506;5.492;2023-07-29T03:36:00;20.30;66.40
81311;DHT22;70779;52.506;5.492;2023-07-29T03:38:27;20.30;66.50
81311;DHT22;70779;52.506;5.492;2023-07-29T03:40:53;20.10;66.60
81311;DHT22;70779;52.506;5.492;2023-07-29T03:43:19;20.10;66.70
81311;DHT22;70779;52.506;5.492;2023-07-29T03:45:46;20.10;66.80
81311;DHT22;70779;52.506;5.492;2023-07-29T03:48:12;20.00;66.90
81311;DHT22;70779;52.506;5.492;2023-07-29T03:50:38;20.00;67.00
81311;DHT22;70779;52.506;5.492;2023-07-29T03:53:05;20.00;67.00
81311;DHT22;70779;52.506;5.492;2023-07-29T03:55:32;20.00;67.10
81311;DHT22;70779;52.506;5.492;2023-07-29T03:57:59;20.00;67.20
81311;DHT22;70779;52.506;5.492;2023-07-29T04:00:25;20.00;67.20
81311;DHT22;70779;52.506;5.492;2023-07-29T04:02:52;20.00;67.30
81311;DHT22;70779;52.506;5.492;2023-07-29T04:05:18;20.00;67.30
81311;DHT22;70779;52.506;5.492;2023-07-29T04:07:45;20.00;67.30
81311;DHT22;70779;52.506;5.492;2023-07-29T04:10:11;20.00;67.30
81311;DHT22;70779;52.506;5.492;2023-07-29T04:12:38;20.00;67.40
81311;DHT22;70779;52.506;5.492;2023-07-29T04:15:05;20.00;67.40
81311;DHT22;70779;52.506;5.492;2023-07-29T04:17:31;20.00;67.40
81311;DHT22;70779;52.506;5.492;2023-07-29T04:19:57;20.00;67.50
81311;DHT22;70779;52.506;5.492;2023-07-29T04:22:28;20.00;67.50
81311;DHT22;70779;52.506;5.492;2023-07-29T04:24:54;20.00;67.50
81311;DHT22;70779;52.506;5.492;2023-07-29T04:27:20;20.00;67.50
81311;DHT22;70779;52.506;5.492;2023-07-29T04:29:47;20.00;67.50
81311;DHT22;70779;52.506;5.492;2023-07-29T04:32:13;20.00;67.50
81311;DHT22;70779;52.506;5.492;2023-07-29T04:34:42;20.00;67.50
81311;DHT22;70779;52.506;5.492;2023-07-29T04:37:08;20.00;67.50
81311;DHT22;70779;52.506;5.492;2023-07-29T04:39:34;20.00;67.70
81311;DHT22;70779;52.506;5.492;2023-07-29T04:42:00;20.10;67.70
81311;DHT22;70779;52.506;5.492;2023-07-29T04:44:26;20.10;67.60
81311;DHT22;70779;52.506;5.492;2023-07-29T04:46:52;20.10;67.60
81311;DHT22;70779;52.506;5.492;2023-07-29T04:49:19;20.20;67.50
81311;DHT22;70779;52.506;5.492;2023-07-29T04:51:45;20.30;67.50
81311;DHT22;70779;52.506;5.492;2023-07-29T04:54:11;20.30;67.40
81311;DHT22;70779;52.506;5.492;2023-07-29T04:56:37;20.30;67.30
81311;DHT22;70779;52.506;5.492;2023-07-29T04:59:03;20.40;67.20
81311;DHT22;70779;52.506;5.492;2023-07-29T05:01:29;20.40;67.20
81311;DHT22;70779;52.506;5.492;2023-07-29T05:03:55;20.50;67.10
81311;DHT22;70779;52.506;5.492;2023-07-29T05:06:22;20.50;67.10
81311;DHT22;70779;52.506;5.492;2023-07-29T05:08:48;20.50;67.00
81311;DHT22;70779;52.506;5.492;2023-07-29T05:11:14;20.60;66.90
81311;DHT22;70779;52.506;5.492;2023-07-29T05:13:40;20.60;66.90
81311;DHT22;70779;52.506;5.492;2023-07-29T05:16:06;20.60;66.80
81311;DHT22;70779;52.506;5.492;2023-07-29T05:18:33;20.60;66.80
81311;DHT22;70779;52.506;5.492;2023-07-29T05:20:59;20.60;66.70
81311;DHT22;70779;52.506;5.492;2023-07-29T05:23:25;20.50;66.80
81311;DHT22;70779;52.506;5.492;2023-07-29T05:25:51;20.50;66.90
81311;DHT22;70779;52.506;5.492;2023-07-29T05:28:17;20.50;67.10
81311;DHT22;70779;52.506;5.492;2023-07-29T05:30:44;20.60;67.10
81311;DHT22;70779;52.506;5.492;2023-07-29T05:33:10;20.70;67.00
81311;DHT22;70779;52.506;5.492;2023-07-29T05:35:38;21.00;66.90
81311;DHT22;70779;52.506;5.492;2023-07-29T05:38:04;21.30;66.20
81311;DHT22;70779;52.506;5.492;2023-07-29T05:40:32;21.60;65.60
81311;DHT22;70779;52.506;5.492;2023-07-29T05:42:58;21.90;65.20
81311;DHT22;70779;52.506;5.492;2023-07-29T05:45:25;22.10;64.70
81311;DHT22;70779;52.506;5.492;2023-07-29T05:47:51;22.20;64.20
81311;DHT22;70779;52.506;5.492;2023-07-29T05:50:17;22.20;64.00
81311;DHT22;70779;52.506;5.492;2023-07-29T05:52:43;22.20;64.00
81311;DHT22;70779;52.506;5.492;2023-07-29T05:55:09;22.30;63.70
81311;DHT22;70779;52.506;5.492;2023-07-29T05:57:35;22.50;63.70
81311;DHT22;70779;52.506;5.492;2023-07-29T06:00:02;22.50;63.60
81311;DHT22;70779;52.506;5.492;2023-07-29T06:02:39;22.70;63.30
81311;DHT22;70779;52.506;5.492;2023-07-29T06:05:07;22.90;62.80
81311;DHT22;70779;52.506;5.492;2023-07-29T06:07:33;22.90;62.50
81311;DHT22;70779;52.506;5.492;2023-07-29T06:10:00;23.00;62.50
81311;DHT22;70779;52.506;5.492;2023-07-29T06:12:26;23.00;62.30
81311;DHT22;70779;52.506;5.492;2023-07-29T06:14:52;23.10;62.20
81311;DHT22;70779;52.506;5.492;2023-07-29T06:17:18;23.00;62.20
81311;DHT22;70779;52.506;5.492;2023-07-29T06:19:44;22.90;62.30
81311;DHT22;70779;52.506;5.492;2023-07-29T06:22:10;22.80;62.50
81311;DHT22;70779;52.506;5.492;2023-07-29T06:24:36;22.70;62.80
81311;DHT22;70779;52.506;5.492;2023-07-29T06:27:03;22.60;63.00
81311;DHT22;70779;52.506;5.492;2023-07-29T06:29:29;22.60;63.10
81311;DHT22;70779;52.506;5.492;2023-07-29T06:31:55;22.60;63.20
81311;DHT22;70779;52.506;5.492;2023-07-29T06:34:21;22.70;63.20
81311;DHT22;70779;52.506;5.492;2023-07-29T06:36:48;22.80;63.20
81311;DHT22;70779;52.506;5.492;2023-07-29T06:39:14;23.00;63.10
81311;DHT22;70779;52.506;5.492;2023-07-29T06:41:40;23.20;62.60
81311;DHT22;70779;52.506;5.492;2023-07-29T06:44:06;23.40;62.10
81311;DHT22;70779;52.506;5.492;2023-07-29T06:46:32;23.50;61.80
81311;DHT22;70779;52.506;5.492;2023-07-29T06:48:58;23.50;61.80
81311;DHT22;70779;52.506;5.492;2023-07-29T06:51:24;23.60;61.80
81311;DHT22;70779;52.506;5.492;2023-07-29T06:53:50;23.60;61.60
81311;DHT22;70779;52.506;5.492;2023-07-29T06:56:17;23.60;61.60
81311;DHT22;70779;52.506;5.492;2023-07-29T06:58:43;23.60;61.60
81311;DHT22;70779;52.506;5.492;2023-07-29T07:01:09;23.60;61.60
81311;DHT22;70779;52.506;5.492;2023-07-29T07:03:35;23.70;61.40
81311;DHT22;70779;52.506;5.492;2023-07-29T07:06:01;23.70;61.40
81311;DHT22;70779;52.506;5.492;2023-07-29T07:08:27;23.80;61.30
81311;DHT22;70779;52.506;5.492;2023-07-29T07:10:53;23.90;61.30
81311;DHT22;70779;52.506;5.492;2023-07-29T07:13:19;24.10;61.20
81311;DHT22;70779;52.506;5.492;2023-07-29T07:15:47;24.20;60.70
81311;DHT22;70779;52.506;5.492;2023-07-29T07:18:13;24.40;60.20
81311;DHT22;70779;52.506;5.492;2023-07-29T07:20:39;24.50;60.00
81311;DHT22;70779;52.506;5.492;2023-07-29T07:23:05;24.60;59.80
81311;DHT22;70779;52.506;5.492;2023-07-29T07:25:34;24.60;59.70
81311;DHT22;70779;52.506;5.492;2023-07-29T07:28:00;24.60;59.70
81311;DHT22;70779;52.506;5.492;2023-07-29T07:30:26;24.60;59.60
81311;DHT22;70779;52.506;5.492;2023-07-29T07:32:52;24.50;59.70
81311;DHT22;70779;52.506;5.492;2023-07-29T07:35:18;24.40;59.90
81311;DHT22;70779;52.506;5.492;2023-07-29T07:37:45;24.40;60.10
81311;DHT22;70779;52.506;5.492;2023-07-29T07:40:11;24.30;60.40
81311;DHT22;70779;52.506;5.492;2023-07-29T07:42:37;24.40;60.20
81311;DHT22;70779;52.506;5.492;2023-07-29T07:45:03;24.70;60.10
81311;DHT22;70779;52.506;5.492;2023-07-29T07:47:30;25.00;59.60
81311;DHT22;70779;52.506;5.492;2023-07-29T07:49:56;25.10;59.10
81311;DHT22;70779;52.506;5.492;2023-07-29T07:52:22;25.20;59.00
81311;DHT22;70779;52.506;5.492;2023-07-29T07:54:52;25.40;59.00
81311;DHT22;70779;52.506;5.492;2023-07-29T07:57:20;25.60;58.20
81311;DHT22;70779;52.506;5.492;2023-07-29T07:59:47;26.00;58.20
81311;DHT22;70779;52.506;5.492;2023-07-29T08:02:13;26.90;56.60
81311;DHT22;70779;52.506;5.492;2023-07-29T08:04:39;27.50;55.20
81311;DHT22;70779;52.506;5.492;2023-07-29T08:07:05;27.50;54.60
81311;DHT22;70779;52.506;5.492;2023-07-29T08:09:31;27.40;54.80
81311;DHT22;70779;52.506;5.492;2023-07-29T08:11:58;27.10;55.00
81311;DHT22;70779;52.506;5.492;2023-07-29T08:14:24;26.80;55.30
81311;DHT22;70779;52.506;5.492;2023-07-29T08:16:50;26.60;55.90
81311;DHT22;70779;52.506;5.492;2023-07-29T08:19:16;26.40;56.50
81311;DHT22;70779;52.506;5.492;2023-07-29T08:21:42;26.60;56.70
81311;DHT22;70779;52.506;5.492;2023-07-29T08:24:08;26.90;55.50
81311;DHT22;70779;52.506;5.492;2023-07-29T08:26:34;27.00;55.40
81311;DHT22;70779;52.506;5.492;2023-07-29T08:29:00;27.10;55.50
81311;DHT22;70779;52.506;5.492;2023-07-29T08:31:27;27.30;55.10
81311;DHT22;70779;52.506;5.492;2023-07-29T08:33:53;27.50;55.00
81311;DHT22;70779;52.506;5.492;2023-07-29T08:36:19;27.80;54.40
81311;DHT22;70779;52.506;5.492;2023-07-29T08:38:45;27.90;54.30
81311;DHT22;70779;52.506;5.492;2023-07-29T08:41:19;28.00;54.20
81311;DHT22;70779;52.506;5.492;2023-07-29T08:43:59;28.00;53.70
81311;DHT22;70779;52.506;5.492;2023-07-29T08:46:28;27.80;53.70
81311;DHT22;70779;52.506;5.492;2023-07-29T08:48:55;27.40;54.40
81311;DHT22;70779;52.506;5.492;2023-07-29T08:51:21;27.00;55.50
81311;DHT22;70779;52.506;5.492;2023-07-29T08:53:49;26.60;56.60
81311;DHT22;70779;52.506;5.492;2023-07-29T08:56:15;26.10;57.60
81311;DHT22;70779;52.506;5.492;2023-07-29T08:58:42;25.60;58.70
81311;DHT22;70779;52.506;5.492;2023-07-29T09:01:09;25.50;59.60
81311;DHT22;70779;52.506;5.492;2023-07-29T09:03:36;25.60;59.50
81311;DHT22;70779;52.506;5.492;2023-07-29T09:06:02;25.70;59.00
81311;DHT22;70779;52.506;5.492;2023-07-29T09:08:29;25.80;58.70
81311;DHT22;70779;52.506;5.492;2023-07-29T09:10:55;26.20;58.70
81311;DHT22;70779;52.506;5.492;2023-07-29T09:13:22;26.70;57.10
81311;DHT22;70779;52.506;5.492;2023-07-29T09:15:48;26.90;56.40
81311;DHT22;70779;52.506;5.492;2023-07-29T09:18:19;26.90;56.20
81311;DHT22;70779;52.506;5.492;2023-07-29T09:20:49;27.20;56.50
81311;DHT22;70779;52.506;5.492;2023-07-29T09:23:16;28.00;55.00
81311;DHT22;70779;52.506;5.492;2023-07-29T09:25:42;28.50;53.80
81311;DHT22;70779;52.506;5.492;2023-07-29T09:28:11;29.10;52.80
81311;DHT22;70779;52.506;5.492;2023-07-29T09:30:42;29.70;51.50
81311;DHT22;70779;52.506;5.492;2023-07-29T09:33:09;30.30;50.70
81311;DHT22;70779;52.506;5.492;2023-07-29T09:35:36;30.60;50.20
81311;DHT22;70779;52.506;5.492;2023-07-29T09:38:03;30.70;49.70
81311;DHT22;70779;52.506;5.492;2023-07-29T09:40:38;30.50;49.50
81311;DHT22;70779;52.506;5.492;2023-07-29T09:43:05;30.10;49.30
81311;DHT22;70779;52.506;5.492;2023-07-29T09:45:34;29.50;49.30
81311;DHT22;70779;52.506;5.492;2023-07-29T09:48:01;28.90;49.70
81311;DHT22;70779;52.506;5.492;2023-07-29T09:50:29;28.30;50.60
81311;DHT22;70779;52.506;5.492;2023-07-29T09:52:56;27.90;51.40
81311;DHT22;70779;52.506;5.492;2023-07-29T09:55:25;27.50;52.00
81311;DHT22;70779;52.506;5.492;2023-07-29T09:57:59;27.30;52.70
81311;DHT22;70779;52.506;5.492;2023-07-29T10:00:28;27.00;53.10
81311;DHT22;70779;52.506;5.492;2023-07-29T10:02:55;26.80;53.40
81311;DHT22;70779;52.506;5.492;2023-07-29T10:05:26;26.50;54.00
81311;DHT22;70779;52.506;5.492;2023-07-29T10:07:54;26.30;54.50
81311;DHT22;70779;52.506;5.492;2023-07-29T10:10:20;26.20;54.80
81311;DHT22;70779;52.506;5.492;2023-07-29T10:12:47;26.20;54.90
81311;DHT22;70779;52.506;5.492;2023-07-29T10:15:13;26.20;54.80
81311;DHT22;70779;52.506;5.492;2023-07-29T10:17:40;26.40;54.80
81311;DHT22;70779;52.506;5.492;2023-07-29T10:20:10;26.70;54.70
81311;DHT22;70779;52.506;5.492;2023-07-29T10:22:41;27.20;54.30
81311;DHT22;70779;52.506;5.492;2023-07-29T10:25:21;28.30;53.20
81311;DHT22;70779;52.506;5.492;2023-07-29T10:27:49;29.70;49.80
81311;DHT22;70779;52.506;5.492;2023-07-29T10:30:18;30.00;48.70
81311;DHT22;70779;52.506;5.492;2023-07-29T10:32:45;29.70;49.10
81311;DHT22;70779;52.506;5.492;2023-07-29T10:35:12;29.70;48.90
81311;DHT22;70779;52.506;5.492;2023-07-29T10:37:39;30.10;49.00
81311;DHT22;70779;52.506;5.492;2023-07-29T10:40:10;30.90;48.10
81311;DHT22;70779;52.506;5.492;2023-07-29T10:42:37;32.00;47.00
81311;DHT22;70779;52.506;5.492;2023-07-29T10:45:20;33.00;45.20
81311;DHT22;70779;52.506;5.492;2023-07-29T10:47:47;33.60;44.00
81311;DHT22;70779;52.506;5.492;2023-07-29T10:50:18;33.90;43.80
81311;DHT22;70779;52.506;5.492;2023-07-29T10:52:49;33.80;43.70
81311;DHT22;70779;52.506;5.492;2023-07-29T10:58:13;32.20;45.30
81311;DHT22;70779;52.506;5.492;2023-07-29T11:00:43;31.40;46.70
81311;DHT22;70779;52.506;5.492;2023-07-29T11:03:12;30.90;47.30
81311;DHT22;70779;52.506;5.492;2023-07-29T11:05:51;30.60;47.70
81311;DHT22;70779;52.506;5.492;2023-07-29T11:08:28;30.40;48.20
81311;DHT22;70779;52.506;5.492;2023-07-29T11:11:00;30.30;48.30
81311;DHT22;70779;52.506;5.492;2023-07-29T11:13:28;30.00;48.50
81311;DHT22;70779;52.506;5.492;2023-07-29T11:15:55;29.70;48.70
81311;DHT22;70779;52.506;5.492;2023-07-29T11:18:32;29.50;49.00
81311;DHT22;70779;52.506;5.492;2023-07-29T11:21:01;29.10;49.60
81311;DHT22;70779;52.506;5.492;2023-07-29T11:23:34;28.90;49.70
81311;DHT22;70779;52.506;5.492;2023-07-29T11:26:02;28.70;50.10
81311;DHT22;70779;52.506;5.492;2023-07-29T11:28:28;28.60;50.40
81311;DHT22;70779;52.506;5.492;2023-07-29T11:30:55;28.70;50.30
81311;DHT22;70779;52.506;5.492;2023-07-29T11:33:24;28.80;50.20
81311;DHT22;70779;52.506;5.492;2023-07-29T11:35:51;28.70;50.30
81311;DHT22;70779;52.506;5.492;2023-07-29T11:38:18;28.60;50.40
81311;DHT22;70779;52.506;5.492;2023-07-29T11:41:01;28.50;50.70
81311;DHT22;70779;52.506;5.492;2023-07-29T11:43:35;28.50;50.50
81311;DHT22;70779;52.506;5.492;2023-07-29T11:46:02;28.40;50.40
81311;DHT22;70779;52.506;5.492;2023-07-29T11:48:32;28.30;50.20
81311;DHT22;70779;52.506;5.492;2023-07-29T11:50:58;28.20;50.30
81311;DHT22;70779;52.506;5.492;2023-07-29T11:53:29;28.00;50.60
81311;DHT22;70779;52.506;5.492;2023-07-29T11:55:56;27.80;51.00
81311;DHT22;70779;52.506;5.492;2023-07-29T11:58:23;27.50;51.70
81311;DHT22;70779;52.506;5.492;2023-07-29T12:00:49;27.40;52.20
81311;DHT22;70779;52.506;5.492;2023-07-29T12:03:17;27.40;52.40
81311;DHT22;70779;52.506;5.492;2023-07-29T12:05:44;27.70;52.10
81311;DHT22;70779;52.506;5.492;2023-07-29T12:08:10;27.90;51.80
81311;DHT22;70779;52.506;5.492;2023-07-29T12:10:37;28.10;51.50
81311;DHT22;70779;52.506;5.492;2023-07-29T12:13:03;28.30;51.30
81311;DHT22;70779;52.506;5.492;2023-07-29T12:15:29;28.50;51.20
81311;DHT22;70779;52.506;5.492;2023-07-29T12:17:57;28.50;50.50
81311;DHT22;70779;52.506;5.492;2023-07-29T12:20:24;28.60;50.30
81311;DHT22;70779;52.506;5.492;2023-07-29T12:22:54;28.60;50.50
81311;DHT22;70779;52.506;5.492;2023-07-29T12:25:21;28.60;50.70
81311;DHT22;70779;52.506;5.492;2023-07-29T12:27:47;28.60;50.90
81311;DHT22;70779;52.506;5.492;2023-07-29T12:30:14;28.50;51.00
81311;DHT22;70779;52.506;5.492;2023-07-29T12:32:44;28.50;51.20
81311;DHT22;70779;52.506;5.492;2023-07-29T12:35:11;28.30;51.10
81311;DHT22;70779;52.506;5.492;2023-07-29T12:37:37;28.30;51.10
81311;DHT22;70779;52.506;5.492;2023-07-29T12:40:05;28.10;51.10
81311;DHT22;70779;52.506;5.492;2023-07-29T12:42:31;28.00;51.40
81311;DHT22;70779;52.506;5.492;2023-07-29T12:44:57;27.90;51.60
81311;DHT22;70779;52.506;5.492;2023-07-29T12:47:23;27.80;52.00
81311;DHT22;70779;52.506;5.492;2023-07-29T12:49:49;27.60;53.10
81311;DHT22;70779;52.506;5.492;2023-07-29T12:52:15;27.50;54.10
81311;DHT22;70779;52.506;5.492;2023-07-29T12:54:41;27.20;55.00
81311;DHT22;70779;52.506;5.492;2023-07-29T12:57:10;26.90;55.70
81311;DHT22;70779;52.506;5.492;2023-07-29T12:59:36;26.60;56.70
81311;DHT22;70779;52.506;5.492;2023-07-29T13:02:02;26.40;58.00
81311;DHT22;70779;52.506;5.492;2023-07-29T13:04:28;26.10;58.90
81311;DHT22;70779;52.506;5.492;2023-07-29T13:06:54;25.80;60.00
81311;DHT22;70779;52.506;5.492;2023-07-29T13:09:22;25.50;60.60
81311;DHT22;70779;52.506;5.492;2023-07-29T13:11:48;25.30;61.30
81311;DHT22;70779;52.506;5.492;2023-07-29T13:14:14;25.20;62.00
81311;DHT22;70779;52.506;5.492;2023-07-29T13:16:41;25.50;62.20
81311;DHT22;70779;52.506;5.492;2023-07-29T13:19:07;25.70;61.90
81311;DHT22;70779;52.506;5.492;2023-07-29T13:21:33;26.00;61.60
81311;DHT22;70779;52.506;5.492;2023-07-29T13:23:59;26.20;60.90
81311;DHT22;70779;52.506;5.492;2023-07-29T13:26:25;26.30;61.10
81311;DHT22;70779;52.506;5.492;2023-07-29T13:28:51;26.30;61.10
81311;DHT22;70779;52.506;5.492;2023-07-29T13:31:17;26.30;60.50
81311;DHT22;70779;52.506;5.492;2023-07-29T13:33:43;26.40;59.40
81311;DHT22;70779;52.506;5.492;2023-07-29T13:36:09;26.20;58.70
81311;DHT22;70779;52.506;5.492;2023-07-29T13:38:35;26.10;59.20
81311;DHT22;70779;52.506;5.492;2023-07-29T13:41:01;26.10;59.20
81311;DHT22;70779;52.506;5.492;2023-07-29T13:43:28;26.10;58.80
81311;DHT22;70779;52.506;5.492;2023-07-29T13:45:54;26.00;59.00
81311;DHT22;70779;52.506;5.492;2023-07-29T13:48:20;25.80;59.50
81311;DHT22;70779;52.506;5.492;2023-07-29T13:50:46;25.80;59.40
81311;DHT22;70779;52.506;5.492;2023-07-29T13:53:12;25.70;59.10
81311;DHT22;70779;52.506;5.492;2023-07-29T13:55:38;25.60;59.10
81311;DHT22;70779;52.506;5.492;2023-07-29T13:58:04;25.70;58.90
81311;DHT22;70779;52.506;5.492;2023-07-29T14:00:30;25.80;59.30
81311;DHT22;70779;52.506;5.492;2023-07-29T14:02:56;25.80;59.40
81311;DHT22;70779;52.506;5.492;2023-07-29T14:05:23;25.90;59.10
81311;DHT22;70779;52.506;5.492;2023-07-29T14:07:49;26.00;58.90
81311;DHT22;70779;52.506;5.492;2023-07-29T14:10:15;26.00;58.30
81311;DHT22;70779;52.506;5.492;2023-07-29T14:12:41;26.00;58.60
81311;DHT22;70779;52.506;5.492;2023-07-29T14:15:07;26.00;58.50
81311;DHT22;70779;52.506;5.492;2023-07-29T14:17:34;26.00;58.10
81311;DHT22;70779;52.506;5.492;2023-07-29T14:20:00;26.00;58.10
81311;DHT22;70779;52.506;5.492;2023-07-29T14:22:26;25.90;58.20
81311;DHT22;70779;52.506;5.492;2023-07-29T14:24:52;25.80;57.80
81311;DHT22;70779;52.506;5.492;2023-07-29T14:27:18;25.80;58.10
81311;DHT22;70779;52.506;5.492;2023-07-29T14:29:44;25.80;58.10
81311;DHT22;70779;52.506;5.492;2023-07-29T14:32:10;25.80;58.30
81311;DHT22;70779;52.506;5.492;2023-07-29T14:34:36;25.90;57.90
81311;DHT22;70779;52.506;5.492;2023-07-29T14:37:03;25.90;57.80
81311;DHT22;70779;52.506;5.492;2023-07-29T14:39:29;26.00;57.90
81311;DHT22;70779;52.506;5.492;2023-07-29T14:41:55;26.00;57.90
81311;DHT22;70779;52.506;5.492;2023-07-29T14:44:21;26.20;57.30
81311;DHT22;70779;52.506;5.492;2023-07-29T14:46:47;26.40;57.10
81311;DHT22;70779;52.506;5.492;2023-07-29T14:49:13;26.50;56.60
81311;DHT22;70779;52.506;5.492;2023-07-29T14:51:39;26.60;56.30
81311;DHT22;70779;52.506;5.492;2023-07-29T14:54:05;26.70;55.80
81311;DHT22;70779;52.506;5.492;2023-07-29T14:56:31;26.70;55.70
81311;DHT22;70779;52.506;5.492;2023-07-29T14:58:57;26.70;55.00
81311;DHT22;70779;52.506;5.492;2023-07-29T15:01:24;26.70;54.90
81311;DHT22;70779;52.506;5.492;2023-07-29T15:03:50;26.70;55.00
81311;DHT22;70779;52.506;5.492;2023-07-29T15:06:16;26.70;54.50
81311;DHT22;70779;52.506;5.492;2023-07-29T15:08:43;26.70;54.80
81311;DHT22;70779;52.506;5.492;2023-07-29T15:11:09;26.70;54.90
81311;DHT22;70779;52.506;5.492;2023-07-29T15:13:35;26.60;55.00
81311;DHT22;70779;52.506;5.492;2023-07-29T15:16:01;26.60;54.80
81311;DHT22;70779;52.506;5.492;2023-07-29T15:18:27;26.50;54.60
81311;DHT22;70779;52.506;5.492;2023-07-29T15:20:59;26.50;54.70
81311;DHT22;70779;52.506;5.492;2023-07-29T15:23:25;26.40;54.80
81311;DHT22;70779;52.506;5.492;2023-07-29T15:25:52;26.40;54.80
81311;DHT22;70779;52.506;5.492;2023-07-29T15:28:18;26.50;55.20
81311;DHT22;70779;52.506;5.492;2023-07-29T15:30:44;26.50;55.20
81311;DHT22;70779;52.506;5.492;2023-07-29T15:33:10;26.60;55.00
81311;DHT22;70779;52.506;5.492;2023-07-29T15:35:37;26.70;54.80
81311;DHT22;70779;52.506;5.492;2023-07-29T15:38:05;26.80;54.30
81311;DHT22;70779;52.506;5.492;2023-07-29T15:40:32;26.70;54.40